Main page
METAR-TAF:

METAR-TAF

Airports :

Jinotega, Nicaragua

latitude: 13-05N, longitude: 085-59W, elevation: 985 m

Current weather observation

The report was made 13 hours and 31 minutes ago, at 23:00 UTC
Wind 6 kt from the North
Temperature 25°C
Humidity 61%
Pressure 1010 hPa
Visibility 10 km or more
Scattered clouds at a height of 2000 ft

METAR: MNJG 312300Z 36006KT 9999 SCT020 25/17 Q1010

Time: 06:31 (12:31 UTC)


TAF: missing

Weather observations and forecasts of more than 4000 airports (METAR and TAF reports).

The available stations are represented by yellow and red dots on the map.

Hover mouse over dot to see the name of the station.

Then click to see weather observations and forecasts.

To change the map : click on the green buttons with a black cross to zoom in, on the green button with a dash to zoom out, or on the green arrows for adjacent maps.


METAR-TAF: